sensor_id;sensor_type;location;lat;lon;timestamp;temperature;humidity
55777;DHT22;54079;44.540;18.784;2022-07-06T00:01:45;18.40;99.90
55777;DHT22;54079;44.540;18.784;2022-07-06T00:04:11;18.40;99.90
55777;DHT22;54079;44.540;18.784;2022-07-06T00:06:38;18.40;99.90
55777;DHT22;54079;44.540;18.784;2022-07-06T00:09:05;18.40;99.90
55777;DHT22;54079;44.540;18.784;2022-07-06T00:11:31;18.40;99.90
55777;DHT22;54079;44.540;18.784;2022-07-06T00:13:57;18.30;99.90
55777;DHT22;54079;44.540;18.784;2022-07-06T00:16:23;18.30;99.90
55777;DHT22;54079;44.540;18.784;2022-07-06T00:18:49;18.30;99.90
55777;DHT22;54079;44.540;18.784;2022-07-06T00:21:15;18.40;99.90
55777;DHT22;54079;44.540;18.784;2022-07-06T00:23:42;18.40;99.90
55777;DHT22;54079;44.540;18.784;2022-07-06T00:26:08;18.40;99.90
55777;DHT22;54079;44.540;18.784;2022-07-06T00:28:34;18.40;99.90
55777;DHT22;54079;44.540;18.784;2022-07-06T00:31:00;18.40;99.90
55777;DHT22;54079;44.540;18.784;2022-07-06T00:33:26;18.30;99.90
55777;DHT22;54079;44.540;18.784;2022-07-06T00:35:52;18.30;99.90
55777;DHT22;54079;44.540;18.784;2022-07-06T00:38:18;18.30;99.90
55777;DHT22;54079;44.540;18.784;2022-07-06T00:40:44;18.30;99.90
55777;DHT22;54079;44.540;18.784;2022-07-06T00:43:10;18.20;99.90
55777;DHT22;54079;44.540;18.784;2022-07-06T00:45:36;18.00;99.90
55777;DHT22;54079;44.540;18.784;2022-07-06T00:48:02;17.90;99.90
55777;DHT22;54079;44.540;18.784;2022-07-06T00:50:28;17.80;99.90
55777;DHT22;54079;44.540;18.784;2022-07-06T00:52:56;17.90;99.90
55777;DHT22;54079;44.540;18.784;2022-07-06T00:55:24;17.90;99.90
55777;DHT22;54079;44.540;18.784;2022-07-06T00:57:51;17.90;99.90
55777;DHT22;54079;44.540;18.784;2022-07-06T01:00:21;18.00;99.90
55777;DHT22;54079;44.540;18.784;2022-07-06T01:02:47;17.90;99.90
55777;DHT22;54079;44.540;18.784;2022-07-06T01:05:14;18.00;99.90
55777;DHT22;54079;44.540;18.784;2022-07-06T01:07:42;18.00;99.90
55777;DHT22;54079;44.540;18.784;2022-07-06T01:10:10;18.00;99.90
55777;DHT22;54079;44.540;18.784;2022-07-06T01:12:38;17.90;99.90
55777;DHT22;54079;44.540;18.784;2022-07-06T01:15:06;17.90;99.90
55777;DHT22;54079;44.540;18.784;2022-07-06T01:17:33;17.80;99.90
55777;DHT22;54079;44.540;18.784;2022-07-06T01:20:20;17.80;99.90
55777;DHT22;54079;44.540;18.784;2022-07-06T01:22:48;17.90;99.90
55777;DHT22;54079;44.540;18.784;2022-07-06T01:25:14;17.90;99.90
55777;DHT22;54079;44.540;18.784;2022-07-06T01:27:41;17.80;99.90
55777;DHT22;54079;44.540;18.784;2022-07-06T01:30:17;17.70;99.90
55777;DHT22;54079;44.540;18.784;2022-07-06T01:32:43;17.60;99.90
55777;DHT22;54079;44.540;18.784;2022-07-06T01:35:12;17.50;99.90
55777;DHT22;54079;44.540;18.784;2022-07-06T01:37:39;17.50;99.90
55777;DHT22;54079;44.540;18.784;2022-07-06T01:40:06;17.60;99.90
55777;DHT22;54079;44.540;18.784;2022-07-06T01:42:33;17.60;99.90
55777;DHT22;54079;44.540;18.784;2022-07-06T01:45:00;17.60;99.90
55777;DHT22;54079;44.540;18.784;2022-07-06T01:47:26;17.60;99.90
55777;DHT22;54079;44.540;18.784;2022-07-06T01:49:52;17.60;99.90
55777;DHT22;54079;44.540;18.784;2022-07-06T01:52:18;17.60;99.90
55777;DHT22;54079;44.540;18.784;2022-07-06T01:54:44;17.60;99.90
55777;DHT22;54079;44.540;18.784;2022-07-06T01:57:10;17.60;99.90
55777;DHT22;54079;44.540;18.784;2022-07-06T01:59:36;17.60;99.90
55777;DHT22;54079;44.540;18.784;2022-07-06T02:02:02;17.60;99.90
55777;DHT22;54079;44.540;18.784;2022-07-06T02:04:28;17.50;99.90
55777;DHT22;54079;44.540;18.784;2022-07-06T02:06:54;17.50;99.90
55777;DHT22;54079;44.540;18.784;2022-07-06T02:09:20;17.60;99.90
55777;DHT22;54079;44.540;18.784;2022-07-06T02:11:46;17.50;99.90
55777;DHT22;54079;44.540;18.784;2022-07-06T02:14:12;17.50;99.90
55777;DHT22;54079;44.540;18.784;2022-07-06T02:16:39;17.40;99.90
55777;DHT22;54079;44.540;18.784;2022-07-06T02:19:04;17.30;99.90
55777;DHT22;54079;44.540;18.784;2022-07-06T02:21:30;17.20;99.90
55777;DHT22;54079;44.540;18.784;2022-07-06T02:23:56;17.30;99.90
55777;DHT22;54079;44.540;18.784;2022-07-06T02:26:22;17.30;99.90
55777;DHT22;54079;44.540;18.784;2022-07-06T02:28:48;17.30;99.90
55777;DHT22;54079;44.540;18.784;2022-07-06T02:31:15;17.40;99.90
55777;DHT22;54079;44.540;18.784;2022-07-06T02:33:41;17.40;99.90
55777;DHT22;54079;44.540;18.784;2022-07-06T02:36:07;17.30;99.90
55777;DHT22;54079;44.540;18.784;2022-07-06T02:38:34;17.40;99.90
55777;DHT22;54079;44.540;18.784;2022-07-06T02:41:00;17.30;99.90
55777;DHT22;54079;44.540;18.784;2022-07-06T02:43:26;17.30;99.90
55777;DHT22;54079;44.540;18.784;2022-07-06T02:45:52;17.30;99.90
55777;DHT22;54079;44.540;18.784;2022-07-06T02:48:17;17.00;99.90
55777;DHT22;54079;44.540;18.784;2022-07-06T02:50:46;17.00;99.90
55777;DHT22;54079;44.540;18.784;2022-07-06T02:53:13;17.00;99.90
55777;DHT22;54079;44.540;18.784;2022-07-06T02:55:39;17.10;99.90
55777;DHT22;54079;44.540;18.784;2022-07-06T02:58:04;17.00;99.90
55777;DHT22;54079;44.540;18.784;2022-07-06T03:00:30;17.10;99.90
55777;DHT22;54079;44.540;18.784;2022-07-06T03:02:56;17.10;99.90
55777;DHT22;54079;44.540;18.784;2022-07-06T03:05:22;17.10;99.90
55777;DHT22;54079;44.540;18.784;2022-07-06T03:07:48;17.30;99.90
55777;DHT22;54079;44.540;18.784;2022-07-06T03:10:14;17.40;99.90
55777;DHT22;54079;44.540;18.784;2022-07-06T03:12:40;17.60;99.90
55777;DHT22;54079;44.540;18.784;2022-07-06T03:15:06;17.70;99.90
55777;DHT22;54079;44.540;18.784;2022-07-06T03:17:35;18.00;99.90
55777;DHT22;54079;44.540;18.784;2022-07-06T03:20:01;18.10;99.90
55777;DHT22;54079;44.540;18.784;2022-07-06T03:22:27;18.10;99.90
55777;DHT22;54079;44.540;18.784;2022-07-06T03:24:53;18.20;99.90
55777;DHT22;54079;44.540;18.784;2022-07-06T03:27:19;18.30;99.90
55777;DHT22;54079;44.540;18.784;2022-07-06T03:29:45;18.40;99.90
55777;DHT22;54079;44.540;18.784;2022-07-06T03:32:11;18.30;99.90
55777;DHT22;54079;44.540;18.784;2022-07-06T03:34:36;18.50;99.90
55777;DHT22;54079;44.540;18.784;2022-07-06T03:37:02;18.60;99.90
55777;DHT22;54079;44.540;18.784;2022-07-06T03:39:28;18.70;99.90
55777;DHT22;54079;44.540;18.784;2022-07-06T03:41:54;18.80;99.90
55777;DHT22;54079;44.540;18.784;2022-07-06T03:44:20;18.80;99.90
55777;DHT22;54079;44.540;18.784;2022-07-06T03:46:46;18.90;99.90
55777;DHT22;54079;44.540;18.784;2022-07-06T03:49:12;19.00;99.90
55777;DHT22;54079;44.540;18.784;2022-07-06T03:51:38;19.10;99.90
55777;DHT22;54079;44.540;18.784;2022-07-06T03:54:05;19.00;99.90
55777;DHT22;54079;44.540;18.784;2022-07-06T03:56:31;19.10;99.90
55777;DHT22;54079;44.540;18.784;2022-07-06T03:59:00;19.00;99.90
55777;DHT22;54079;44.540;18.784;2022-07-06T04:01:26;19.10;99.90
55777;DHT22;54079;44.540;18.784;2022-07-06T04:03:52;19.10;99.90
55777;DHT22;54079;44.540;18.784;2022-07-06T04:06:18;19.20;99.90
55777;DHT22;54079;44.540;18.784;2022-07-06T04:08:44;19.30;99.90
55777;DHT22;54079;44.540;18.784;2022-07-06T04:11:10;19.40;99.90
55777;DHT22;54079;44.540;18.784;2022-07-06T04:13:36;19.60;99.90
55777;DHT22;54079;44.540;18.784;2022-07-06T04:16:05;19.60;99.90
55777;DHT22;54079;44.540;18.784;2022-07-06T04:18:31;19.70;99.90
55777;DHT22;54079;44.540;18.784;2022-07-06T04:20:57;19.70;99.90
55777;DHT22;54079;44.540;18.784;2022-07-06T04:23:24;19.80;99.90
55777;DHT22;54079;44.540;18.784;2022-07-06T04:25:50;19.80;99.90
55777;DHT22;54079;44.540;18.784;2022-07-06T04:28:16;20.00;99.90
55777;DHT22;54079;44.540;18.784;2022-07-06T04:30:42;20.20;99.90
55777;DHT22;54079;44.540;18.784;2022-07-06T04:33:08;20.30;99.90
55777;DHT22;54079;44.540;18.784;2022-07-06T04:35:34;20.40;99.90
55777;DHT22;54079;44.540;18.784;2022-07-06T04:38:00;20.50;99.90
55777;DHT22;54079;44.540;18.784;2022-07-06T04:40:26;20.70;99.90
55777;DHT22;54079;44.540;18.784;2022-07-06T04:42:52;21.00;99.90
55777;DHT22;54079;44.540;18.784;2022-07-06T04:45:19;21.10;99.90
55777;DHT22;54079;44.540;18.784;2022-07-06T04:47:44;21.50;99.90
55777;DHT22;54079;44.540;18.784;2022-07-06T04:50:11;21.50;99.90
55777;DHT22;54079;44.540;18.784;2022-07-06T04:52:37;21.80;99.90
55777;DHT22;54079;44.540;18.784;2022-07-06T04:55:04;22.10;99.90
55777;DHT22;54079;44.540;18.784;2022-07-06T04:57:31;22.50;99.90
55777;DHT22;54079;44.540;18.784;2022-07-06T04:59:57;22.50;99.90
55777;DHT22;54079;44.540;18.784;2022-07-06T05:02:23;22.50;99.90
55777;DHT22;54079;44.540;18.784;2022-07-06T05:04:49;22.40;99.90
55777;DHT22;54079;44.540;18.784;2022-07-06T05:07:15;22.20;99.90
55777;DHT22;54079;44.540;18.784;2022-07-06T05:09:41;22.10;99.90
55777;DHT22;54079;44.540;18.784;2022-07-06T05:12:08;22.20;99.90
55777;DHT22;54079;44.540;18.784;2022-07-06T05:14:34;22.30;99.90
55777;DHT22;54079;44.540;18.784;2022-07-06T05:17:01;22.30;99.90
55777;DHT22;54079;44.540;18.784;2022-07-06T05:19:27;22.40;99.90
55777;DHT22;54079;44.540;18.784;2022-07-06T05:21:53;22.70;99.90
55777;DHT22;54079;44.540;18.784;2022-07-06T05:24:19;22.70;99.90
55777;DHT22;54079;44.540;18.784;2022-07-06T05:26:45;22.70;99.90
55777;DHT22;54079;44.540;18.784;2022-07-06T05:29:11;22.70;99.90
55777;DHT22;54079;44.540;18.784;2022-07-06T05:31:37;22.80;99.90
55777;DHT22;54079;44.540;18.784;2022-07-06T05:34:03;22.90;99.90
55777;DHT22;54079;44.540;18.784;2022-07-06T05:36:29;22.90;99.90
55777;DHT22;54079;44.540;18.784;2022-07-06T05:38:55;22.80;94.70
55777;DHT22;54079;44.540;18.784;2022-07-06T05:41:21;22.70;99.90
55777;DHT22;54079;44.540;18.784;2022-07-06T05:43:47;22.90;99.90
55777;DHT22;54079;44.540;18.784;2022-07-06T05:46:13;23.20;99.90
55777;DHT22;54079;44.540;18.784;2022-07-06T05:48:39;23.70;99.90
55777;DHT22;54079;44.540;18.784;2022-07-06T05:51:24;23.70;93.90
55777;DHT22;54079;44.540;18.784;2022-07-06T05:53:50;23.90;90.90
55777;DHT22;54079;44.540;18.784;2022-07-06T05:56:16;25.30;83.90
55777;DHT22;54079;44.540;18.784;2022-07-06T05:58:41;26.50;87.90
55777;DHT22;54079;44.540;18.784;2022-07-06T06:01:07;27.20;79.90
55777;DHT22;54079;44.540;18.784;2022-07-06T06:03:34;26.90;79.50
55777;DHT22;54079;44.540;18.784;2022-07-06T06:06:00;26.40;73.40
55777;DHT22;54079;44.540;18.784;2022-07-06T06:08:26;26.30;71.40
55777;DHT22;54079;44.540;18.784;2022-07-06T06:10:52;26.70;73.90
55777;DHT22;54079;44.540;18.784;2022-07-06T06:13:19;26.70;76.00
55777;DHT22;54079;44.540;18.784;2022-07-06T06:15:45;26.40;77.10
55777;DHT22;54079;44.540;18.784;2022-07-06T06:18:11;26.80;76.10
55777;DHT22;54079;44.540;18.784;2022-07-06T06:20:37;26.80;70.10
55777;DHT22;54079;44.540;18.784;2022-07-06T06:23:03;26.60;71.80
55777;DHT22;54079;44.540;18.784;2022-07-06T06:25:33;26.80;72.60
55777;DHT22;54079;44.540;18.784;2022-07-06T06:28:01;26.90;72.00
55777;DHT22;54079;44.540;18.784;2022-07-06T06:30:27;26.60;72.80
55777;DHT22;54079;44.540;18.784;2022-07-06T06:33:19;26.30;69.90
55777;DHT22;54079;44.540;18.784;2022-07-06T06:35:47;26.30;70.00
55777;DHT22;54079;44.540;18.784;2022-07-06T06:38:14;27.30;70.30
55777;DHT22;54079;44.540;18.784;2022-07-06T06:40:41;28.40;66.60
55777;DHT22;54079;44.540;18.784;2022-07-06T06:43:07;30.90;65.40
55777;DHT22;54079;44.540;18.784;2022-07-06T06:45:33;30.30;59.40
55777;DHT22;54079;44.540;18.784;2022-07-06T06:47:59;30.90;59.70
55777;DHT22;54079;44.540;18.784;2022-07-06T06:50:25;31.20;57.20
55777;DHT22;54079;44.540;18.784;2022-07-06T06:52:51;31.40;59.60
55777;DHT22;54079;44.540;18.784;2022-07-06T06:55:18;31.60;57.00
55777;DHT22;54079;44.540;18.784;2022-07-06T06:57:44;34.60;54.90
55777;DHT22;54079;44.540;18.784;2022-07-06T07:00:11;37.60;49.90
55777;DHT22;54079;44.540;18.784;2022-07-06T07:02:37;39.20;47.10
55777;DHT22;54079;44.540;18.784;2022-07-06T07:05:05;41.20;45.80
55777;DHT22;54079;44.540;18.784;2022-07-06T07:07:31;43.20;41.70
55777;DHT22;54079;44.540;18.784;2022-07-06T07:09:57;43.70;40.40
55777;DHT22;54079;44.540;18.784;2022-07-06T07:12:23;44.30;39.10
55777;DHT22;54079;44.540;18.784;2022-07-06T07:14:49;45.50;39.50
55777;DHT22;54079;44.540;18.784;2022-07-06T07:17:15;46.60;38.10
55777;DHT22;54079;44.540;18.784;2022-07-06T07:19:41;46.70;37.00
55777;DHT22;54079;44.540;18.784;2022-07-06T07:22:07;47.10;36.40
55777;DHT22;54079;44.540;18.784;2022-07-06T07:24:33;47.90;35.70
55777;DHT22;54079;44.540;18.784;2022-07-06T07:26:59;48.40;34.50
55777;DHT22;54079;44.540;18.784;2022-07-06T07:29:25;48.90;35.00
55777;DHT22;54079;44.540;18.784;2022-07-06T07:31:51;49.30;33.50
55777;DHT22;54079;44.540;18.784;2022-07-06T07:34:17;49.70;33.00
55777;DHT22;54079;44.540;18.784;2022-07-06T07:36:43;49.50;34.20
55777;DHT22;54079;44.540;18.784;2022-07-06T07:39:09;49.50;33.50
55777;DHT22;54079;44.540;18.784;2022-07-06T07:41:35;50.10;33.10
55777;DHT22;54079;44.540;18.784;2022-07-06T07:44:01;50.80;32.70
55777;DHT22;54079;44.540;18.784;2022-07-06T07:46:27;51.60;31.90
55777;DHT22;54079;44.540;18.784;2022-07-06T07:48:52;51.90;31.80
55777;DHT22;54079;44.540;18.784;2022-07-06T07:51:18;52.10;31.80
55777;DHT22;54079;44.540;18.784;2022-07-06T07:53:45;52.40;31.50
55777;DHT22;54079;44.540;18.784;2022-07-06T07:56:11;52.90;30.90
55777;DHT22;54079;44.540;18.784;2022-07-06T07:58:37;52.60;30.00
55777;DHT22;54079;44.540;18.784;2022-07-06T08:01:03;53.00;30.60
55777;DHT22;54079;44.540;18.784;2022-07-06T08:03:30;53.40;30.60
55777;DHT22;54079;44.540;18.784;2022-07-06T08:05:57;53.40;30.40
55777;DHT22;54079;44.540;18.784;2022-07-06T08:08:23;53.70;30.30
55777;DHT22;54079;44.540;18.784;2022-07-06T08:10:49;53.60;30.30
55777;DHT22;54079;44.540;18.784;2022-07-06T08:13:15;53.80;29.80
55777;DHT22;54079;44.540;18.784;2022-07-06T08:15:41;53.90;29.90
55777;DHT22;54079;44.540;18.784;2022-07-06T08:18:08;53.70;29.80
55777;DHT22;54079;44.540;18.784;2022-07-06T08:20:35;53.90;29.80
55777;DHT22;54079;44.540;18.784;2022-07-06T08:23:02;54.30;29.70
55777;DHT22;54079;44.540;18.784;2022-07-06T08:25:27;54.60;29.80
55777;DHT22;54079;44.540;18.784;2022-07-06T08:27:53;54.60;29.90
55777;DHT22;54079;44.540;18.784;2022-07-06T08:30:19;54.60;29.40
55777;DHT22;54079;44.540;18.784;2022-07-06T08:32:45;54.60;29.90
55777;DHT22;54079;44.540;18.784;2022-07-06T08:35:11;54.60;29.70
55777;DHT22;54079;44.540;18.784;2022-07-06T08:37:38;54.20;29.30
55777;DHT22;54079;44.540;18.784;2022-07-06T08:40:05;53.70;28.90
55777;DHT22;54079;44.540;18.784;2022-07-06T08:42:33;53.60;30.00
55777;DHT22;54079;44.540;18.784;2022-07-06T08:45:01;53.30;29.90
55777;DHT22;54079;44.540;18.784;2022-07-06T08:47:30;53.10;29.50
55777;DHT22;54079;44.540;18.784;2022-07-06T08:49:56;52.70;30.00
55777;DHT22;54079;44.540;18.784;2022-07-06T08:52:23;53.00;30.30
55777;DHT22;54079;44.540;18.784;2022-07-06T08:54:49;52.90;30.10
55777;DHT22;54079;44.540;18.784;2022-07-06T08:57:15;52.10;30.00
55777;DHT22;54079;44.540;18.784;2022-07-06T08:59:42;51.80;29.90
55777;DHT22;54079;44.540;18.784;2022-07-06T09:02:10;51.00;29.60
55777;DHT22;54079;44.540;18.784;2022-07-06T09:04:37;50.30;29.90
55777;DHT22;54079;44.540;18.784;2022-07-06T09:07:03;48.90;30.00
55777;DHT22;54079;44.540;18.784;2022-07-06T09:09:30;46.50;31.80
55777;DHT22;54079;44.540;18.784;2022-07-06T09:12:02;44.30;32.70
55777;DHT22;54079;44.540;18.784;2022-07-06T09:14:31;42.10;32.70
55777;DHT22;54079;44.540;18.784;2022-07-06T09:17:05;40.00;34.80
55777;DHT22;54079;44.540;18.784;2022-07-06T09:19:33;38.20;35.50
55777;DHT22;54079;44.540;18.784;2022-07-06T09:22:00;36.90;36.50
55777;DHT22;54079;44.540;18.784;2022-07-06T09:24:28;35.90;37.90
55777;DHT22;54079;44.540;18.784;2022-07-06T09:26:55;35.10;38.60
55777;DHT22;54079;44.540;18.784;2022-07-06T09:29:32;34.10;36.70
55777;DHT22;54079;44.540;18.784;2022-07-06T09:32:00;33.30;37.70
55777;DHT22;54079;44.540;18.784;2022-07-06T09:34:41;33.00;39.30
55777;DHT22;54079;44.540;18.784;2022-07-06T09:37:07;32.80;40.40
55777;DHT22;54079;44.540;18.784;2022-07-06T09:39:33;32.60;40.90
55777;DHT22;54079;44.540;18.784;2022-07-06T09:42:01;32.50;40.50
55777;DHT22;54079;44.540;18.784;2022-07-06T09:44:34;32.50;39.90
55777;DHT22;54079;44.540;18.784;2022-07-06T09:47:03;32.30;40.30
55777;DHT22;54079;44.540;18.784;2022-07-06T09:49:30;32.30;40.30
55777;DHT22;54079;44.540;18.784;2022-07-06T09:51:58;32.20;39.60
55777;DHT22;54079;44.540;18.784;2022-07-06T09:54:25;31.20;35.20
55777;DHT22;54079;44.540;18.784;2022-07-06T09:56:52;30.50;37.20
55777;DHT22;54079;44.540;18.784;2022-07-06T09:59:20;30.20;36.90
55777;DHT22;54079;44.540;18.784;2022-07-06T10:01:47;29.70;37.80
55777;DHT22;54079;44.540;18.784;2022-07-06T10:04:16;29.50;40.60
55777;DHT22;54079;44.540;18.784;2022-07-06T10:06:44;29.50;40.80
55777;DHT22;54079;44.540;18.784;2022-07-06T10:09:13;29.50;40.50
55777;DHT22;54079;44.540;18.784;2022-07-06T10:11:42;29.60;40.00
55777;DHT22;54079;44.540;18.784;2022-07-06T10:14:08;29.60;41.30
55777;DHT22;54079;44.540;18.784;2022-07-06T10:16:37;29.60;38.70
55777;DHT22;54079;44.540;18.784;2022-07-06T10:19:07;29.50;41.20
55777;DHT22;54079;44.540;18.784;2022-07-06T10:21:38;29.50;40.20
55777;DHT22;54079;44.540;18.784;2022-07-06T10:24:08;29.40;40.00
55777;DHT22;54079;44.540;18.784;2022-07-06T10:26:35;29.40;40.20
55777;DHT22;54079;44.540;18.784;2022-07-06T10:29:03;29.30;41.10
55777;DHT22;54079;44.540;18.784;2022-07-06T10:31:29;29.20;39.60
55777;DHT22;54079;44.540;18.784;2022-07-06T10:34:03;29.10;41.70
55777;DHT22;54079;44.540;18.784;2022-07-06T10:36:30;29.10;40.50
55777;DHT22;54079;44.540;18.784;2022-07-06T10:38:56;29.20;42.90
55777;DHT22;54079;44.540;18.784;2022-07-06T10:41:33;29.30;42.50
55777;DHT22;54079;44.540;18.784;2022-07-06T10:44:21;29.40;44.20
55777;DHT22;54079;44.540;18.784;2022-07-06T10:46:55;29.60;43.70
55777;DHT22;54079;44.540;18.784;2022-07-06T10:49:22;29.70;43.10
55777;DHT22;54079;44.540;18.784;2022-07-06T10:51:49;29.80;42.90
55777;DHT22;54079;44.540;18.784;2022-07-06T10:54:16;29.70;41.50
55777;DHT22;54079;44.540;18.784;2022-07-06T10:56:47;29.60;41.70
55777;DHT22;54079;44.540;18.784;2022-07-06T10:59:20;29.50;42.30
55777;DHT22;54079;44.540;18.784;2022-07-06T11:02:14;29.50;41.50
55777;DHT22;54079;44.540;18.784;2022-07-06T11:04:46;29.50;42.00
55777;DHT22;54079;44.540;18.784;2022-07-06T11:07:19;29.30;42.10
55777;DHT22;54079;44.540;18.784;2022-07-06T11:09:56;29.20;41.80
55777;DHT22;54079;44.540;18.784;2022-07-06T11:12:23;29.10;42.90
55777;DHT22;54079;44.540;18.784;2022-07-06T11:14:50;29.10;43.70
55777;DHT22;54079;44.540;18.784;2022-07-06T11:17:17;29.30;42.90
55777;DHT22;54079;44.540;18.784;2022-07-06T11:19:50;29.50;43.30
55777;DHT22;54079;44.540;18.784;2022-07-06T11:22:20;29.50;43.60
55777;DHT22;54079;44.540;18.784;2022-07-06T11:24:46;29.60;43.60
55777;DHT22;54079;44.540;18.784;2022-07-06T11:27:13;29.80;44.00
55777;DHT22;54079;44.540;18.784;2022-07-06T11:29:40;29.50;42.20
55777;DHT22;54079;44.540;18.784;2022-07-06T11:32:07;29.30;43.80
55777;DHT22;54079;44.540;18.784;2022-07-06T11:34:43;29.20;44.00
55777;DHT22;54079;44.540;18.784;2022-07-06T11:37:11;29.40;44.10
55777;DHT22;54079;44.540;18.784;2022-07-06T11:39:39;29.60;44.60
55777;DHT22;54079;44.540;18.784;2022-07-06T11:42:07;29.90;44.30
55777;DHT22;54079;44.540;18.784;2022-07-06T11:44:34;30.00;43.10
55777;DHT22;54079;44.540;18.784;2022-07-06T11:47:01;30.00;41.30
55777;DHT22;54079;44.540;18.784;2022-07-06T11:49:29;29.80;42.10
55777;DHT22;54079;44.540;18.784;2022-07-06T11:51:56;29.80;43.70
55777;DHT22;54079;44.540;18.784;2022-07-06T11:54:24;29.80;42.70
55777;DHT22;54079;44.540;18.784;2022-07-06T11:56:54;29.70;42.40
55777;DHT22;54079;44.540;18.784;2022-07-06T11:59:25;29.80;43.10
55777;DHT22;54079;44.540;18.784;2022-07-06T12:04:32;29.60;44.10
55777;DHT22;54079;44.540;18.784;2022-07-06T12:07:03;29.70;44.10
55777;DHT22;54079;44.540;18.784;2022-07-06T12:09:33;29.90;44.40
55777;DHT22;54079;44.540;18.784;2022-07-06T12:12:00;29.90;43.90
55777;DHT22;54079;44.540;18.784;2022-07-06T12:14:30;29.90;44.10
55777;DHT22;54079;44.540;18.784;2022-07-06T12:16:56;29.80;43.60
55777;DHT22;54079;44.540;18.784;2022-07-06T12:19:27;29.60;43.40
55777;DHT22;54079;44.540;18.784;2022-07-06T12:21:53;29.20;43.10
55777;DHT22;54079;44.540;18.784;2022-07-06T12:24:24;29.20;43.00
55777;DHT22;54079;44.540;18.784;2022-07-06T12:26:51;29.50;43.30
55777;DHT22;54079;44.540;18.784;2022-07-06T12:29:18;29.50;42.90
55777;DHT22;54079;44.540;18.784;2022-07-06T12:34:16;29.70;42.70
55777;DHT22;54079;44.540;18.784;2022-07-06T12:36:46;29.80;41.90
55777;DHT22;54079;44.540;18.784;2022-07-06T12:39:13;29.70;42.60
55777;DHT22;54079;44.540;18.784;2022-07-06T12:41:48;29.60;42.90
55777;DHT22;54079;44.540;18.784;2022-07-06T12:44:20;29.60;42.20
55777;DHT22;54079;44.540;18.784;2022-07-06T12:46:47;29.60;41.60
55777;DHT22;54079;44.540;18.784;2022-07-06T12:49:20;29.50;40.60
55777;DHT22;54079;44.540;18.784;2022-07-06T12:51:50;29.60;40.10
55777;DHT22;54079;44.540;18.784;2022-07-06T12:54:17;29.60;41.70
55777;DHT22;54079;44.540;18.784;2022-07-06T12:57:19;29.50;41.30
55777;DHT22;54079;44.540;18.784;2022-07-06T13:02:29;29.70;41.80
55777;DHT22;54079;44.540;18.784;2022-07-06T13:05:10;29.90;41.40
55777;DHT22;54079;44.540;18.784;2022-07-06T13:07:37;30.00;41.20
55777;DHT22;54079;44.540;18.784;2022-07-06T13:10:08;30.00;41.30
55777;DHT22;54079;44.540;18.784;2022-07-06T13:12:35;30.00;41.50
55777;DHT22;54079;44.540;18.784;2022-07-06T13:15:01;30.00;41.10
55777;DHT22;54079;44.540;18.784;2022-07-06T13:17:28;29.90;39.10
55777;DHT22;54079;44.540;18.784;2022-07-06T13:19:54;29.80;41.70
55777;DHT22;54079;44.540;18.784;2022-07-06T13:22:20;29.80;41.20
55777;DHT22;54079;44.540;18.784;2022-07-06T13:24:46;29.80;41.00
55777;DHT22;54079;44.540;18.784;2022-07-06T13:27:12;29.80;40.00
55777;DHT22;54079;44.540;18.784;2022-07-06T13:29:39;29.80;39.70
55777;DHT22;54079;44.540;18.784;2022-07-06T13:32:06;29.70;40.20
55777;DHT22;54079;44.540;18.784;2022-07-06T13:34:33;29.70;39.90
55777;DHT22;54079;44.540;18.784;2022-07-06T13:37:01;29.50;39.60
55777;DHT22;54079;44.540;18.784;2022-07-06T13:39:27;29.50;40.30
55777;DHT22;54079;44.540;18.784;2022-07-06T13:41:53;29.50;41.50
55777;DHT22;54079;44.540;18.784;2022-07-06T13:44:20;29.70;41.70
55777;DHT22;54079;44.540;18.784;2022-07-06T13:46:46;29.90;41.40
55777;DHT22;54079;44.540;18.784;2022-07-06T13:49:12;30.00;40.70
55777;DHT22;54079;44.540;18.784;2022-07-06T13:51:38;29.90;40.30
55777;DHT22;54079;44.540;18.784;2022-07-06T13:54:04;29.70;39.60
55777;DHT22;54079;44.540;18.784;2022-07-06T13:56:30;29.50;39.80
55777;DHT22;54079;44.540;18.784;2022-07-06T13:58:56;29.40;40.20
55777;DHT22;54079;44.540;18.784;2022-07-06T14:01:22;29.50;38.70
55777;DHT22;54079;44.540;18.784;2022-07-06T14:03:49;29.60;39.80
55777;DHT22;54079;44.540;18.784;2022-07-06T14:06:15;29.50;38.10
55777;DHT22;54079;44.540;18.784;2022-07-06T14:08:42;29.40;40.00
55777;DHT22;54079;44.540;18.784;2022-07-06T14:11:09;29.40;40.70
55777;DHT22;54079;44.540;18.784;2022-07-06T14:13:36;29.30;39.70
55777;DHT22;54079;44.540;18.784;2022-07-06T14:16:02;29.30;41.40
55777;DHT22;54079;44.540;18.784;2022-07-06T14:18:29;29.40;40.20
55777;DHT22;54079;44.540;18.784;2022-07-06T14:20:55;29.30;38.00
55777;DHT22;54079;44.540;18.784;2022-07-06T14:23:22;29.30;39.90
55777;DHT22;54079;44.540;18.784;2022-07-06T14:25:49;29.20;41.00
55777;DHT22;54079;44.540;18.784;2022-07-06T14:28:16;29.20;40.30
55777;DHT22;54079;44.540;18.784;2022-07-06T14:30:43;29.10;39.60
55777;DHT22;54079;44.540;18.784;2022-07-06T14:33:11;29.10;40.10
55777;DHT22;54079;44.540;18.784;2022-07-06T14:35:40;29.00;40.30
55777;DHT22;54079;44.540;18.784;2022-07-06T14:38:07;29.10;40.20
55777;DHT22;54079;44.540;18.784;2022-07-06T14:40:34;29.00;40.00
55777;DHT22;54079;44.540;18.784;2022-07-06T14:43:00;29.10;41.40
55777;DHT22;54079;44.540;18.784;2022-07-06T14:45:26;29.20;41.50
55777;DHT22;54079;44.540;18.784;2022-07-06T14:47:53;29.30;41.20
55777;DHT22;54079;44.540;18.784;2022-07-06T14:50:19;29.40;40.90
55777;DHT22;54079;44.540;18.784;2022-07-06T14:52:46;29.50;41.10
55777;DHT22;54079;44.540;18.784;2022-07-06T14:55:12;29.60;41.40
55777;DHT22;54079;44.540;18.784;2022-07-06T14:57:38;29.60;40.70
55777;DHT22;54079;44.540;18.784;2022-07-06T15:00:04;29.60;40.70
55777;DHT22;54079;44.540;18.784;2022-07-06T15:02:31;29.60;41.30
55777;DHT22;54079;44.540;18.784;2022-07-06T15:04:56;29.60;41.30
55777;DHT22;54079;44.540;18.784;2022-07-06T15:07:22;29.70;40.00
55777;DHT22;54079;44.540;18.784;2022-07-06T15:09:48;29.90;40.40
55777;DHT22;54079;44.540;18.784;2022-07-06T15:12:14;29.70;39.10
55777;DHT22;54079;44.540;18.784;2022-07-06T15:14:40;29.60;38.50
55777;DHT22;54079;44.540;18.784;2022-07-06T15:17:06;29.60;39.30
55777;DHT22;54079;44.540;18.784;2022-07-06T15:19:32;29.60;39.70
55777;DHT22;54079;44.540;18.784;2022-07-06T15:21:58;29.70;40.40
55777;DHT22;54079;44.540;18.784;2022-07-06T15:24:24;29.70;40.30